sensor_id;sensor_type;location;lat;lon;timestamp;pressure;altitude;pressure_sealevel;temperature;humidity
46922;BME280;44039;48.336;10.454;2022-08-03T00:02:32;96036.47;;;16.35;100.00
46922;BME280;44039;48.336;10.454;2022-08-03T00:05:20;96038.78;;;16.19;100.00
46922;BME280;44039;48.336;10.454;2022-08-03T00:08:07;96031.22;;;16.04;100.00
46922;BME280;44039;48.336;10.454;2022-08-03T00:10:54;96029.38;;;15.95;100.00
46922;BME280;44039;48.336;10.454;2022-08-03T00:13:41;96026.19;;;16.01;100.00
46922;BME280;44039;48.336;10.454;2022-08-03T00:16:28;96025.88;;;16.25;100.00
46922;BME280;44039;48.336;10.454;2022-08-03T00:19:15;96030.28;;;16.15;100.00
46922;BME280;44039;48.336;10.454;2022-08-03T00:22:02;96031.41;;;16.12;100.00
46922;BME280;44039;48.336;10.454;2022-08-03T00:24:49;96032.13;;;15.94;100.00
46922;BME280;44039;48.336;10.454;2022-08-03T00:27:36;96024.81;;;15.97;100.00
46922;BME280;44039;48.336;10.454;2022-08-03T00:30:23;96026.13;;;16.12;100.00
46922;BME280;44039;48.336;10.454;2022-08-03T00:33:16;96025.94;;;16.35;100.00
46922;BME280;44039;48.336;10.454;2022-08-03T00:36:06;96018.72;;;16.27;100.00
46922;BME280;44039;48.336;10.454;2022-08-03T00:38:53;96030.56;;;16.12;100.00
46922;BME280;44039;48.336;10.454;2022-08-03T00:41:40;96024.28;;;16.03;100.00
46922;BME280;44039;48.336;10.454;2022-08-03T00:44:27;96021.22;;;15.98;100.00
46922;BME280;44039;48.336;10.454;2022-08-03T00:47:14;96016.88;;;15.88;100.00
46922;BME280;44039;48.336;10.454;2022-08-03T00:50:02;96010.97;;;16.05;100.00
46922;BME280;44039;48.336;10.454;2022-08-03T00:52:52;96011.72;;;16.17;100.00
46922;BME280;44039;48.336;10.454;2022-08-03T00:55:42;96020.03;;;16.12;100.00
46922;BME280;44039;48.336;10.454;2022-08-03T00:58:29;96016.13;;;16.06;100.00
46922;BME280;44039;48.336;10.454;2022-08-03T01:01:16;96021.84;;;16.11;100.00
46922;BME280;44039;48.336;10.454;2022-08-03T01:04:03;96019.06;;;16.13;100.00
46922;BME280;44039;48.336;10.454;2022-08-03T01:06:59;96014.25;;;16.18;100.00
46922;BME280;44039;48.336;10.454;2022-08-03T01:13:28;96021.25;;;16.08;100.00
46922;BME280;44039;48.336;10.454;2022-08-03T01:17:42;96026.75;;;15.95;100.00
46922;BME280;44039;48.336;10.454;2022-08-03T01:20:09;96019.56;;;15.76;100.00
46922;BME280;44039;48.336;10.454;2022-08-03T01:26:41;96016.59;;;16.21;100.00
46922;BME280;44039;48.336;10.454;2022-08-03T01:35:59;96016.41;;;16.53;100.00
46922;BME280;44039;48.336;10.454;2022-08-03T01:38:54;96008.69;;;16.21;100.00
46922;BME280;44039;48.336;10.454;2022-08-03T01:41:47;96005.44;;;16.08;100.00
46922;BME280;44039;48.336;10.454;2022-08-03T01:44:41;96009.47;;;15.81;100.00
46922;BME280;44039;48.336;10.454;2022-08-03T01:47:29;96009.72;;;15.57;100.00
46922;BME280;44039;48.336;10.454;2022-08-03T01:50:23;96008.72;;;15.17;100.00
46922;BME280;44039;48.336;10.454;2022-08-03T01:53:13;96013.00;;;14.97;100.00
46922;BME280;44039;48.336;10.454;2022-08-03T01:56:01;96015.28;;;14.90;100.00
46922;BME280;44039;48.336;10.454;2022-08-03T01:58:50;96012.59;;;15.13;100.00
46922;BME280;44039;48.336;10.454;2022-08-03T02:01:39;96009.75;;;15.25;100.00
46922;BME280;44039;48.336;10.454;2022-08-03T02:04:47;96013.34;;;15.04;100.00
46922;BME280;44039;48.336;10.454;2022-08-03T02:07:36;96005.06;;;15.08;100.00
46922;BME280;44039;48.336;10.454;2022-08-03T02:10:26;96002.13;;;15.22;100.00
46922;BME280;44039;48.336;10.454;2022-08-03T02:13:23;96000.53;;;15.31;100.00
46922;BME280;44039;48.336;10.454;2022-08-03T02:16:12;95997.97;;;15.41;100.00
46922;BME280;44039;48.336;10.454;2022-08-03T02:19:03;96009.88;;;15.24;100.00
46922;BME280;44039;48.336;10.454;2022-08-03T02:21:50;96009.00;;;15.14;100.00
46922;BME280;44039;48.336;10.454;2022-08-03T02:24:46;96012.44;;;15.14;100.00
46922;BME280;44039;48.336;10.454;2022-08-03T02:27:39;96007.88;;;15.16;100.00
46922;BME280;44039;48.336;10.454;2022-08-03T02:30:35;96009.25;;;15.32;100.00
46922;BME280;44039;48.336;10.454;2022-08-03T02:33:25;96008.22;;;15.23;100.00
46922;BME280;44039;48.336;10.454;2022-08-03T02:36:13;96011.84;;;14.90;100.00
46922;BME280;44039;48.336;10.454;2022-08-03T02:39:02;96007.25;;;14.60;100.00
46922;BME280;44039;48.336;10.454;2022-08-03T02:41:51;96009.13;;;14.69;100.00
46922;BME280;44039;48.336;10.454;2022-08-03T02:44:41;96007.13;;;14.72;100.00
46922;BME280;44039;48.336;10.454;2022-08-03T02:47:35;96009.75;;;14.61;100.00
46922;BME280;44039;48.336;10.454;2022-08-03T02:50:41;96005.19;;;14.63;100.00
46922;BME280;44039;48.336;10.454;2022-08-03T02:53:30;95997.13;;;15.19;100.00
46922;BME280;44039;48.336;10.454;2022-08-03T02:56:19;95994.34;;;16.04;100.00
46922;BME280;44039;48.336;10.454;2022-08-03T02:59:08;95987.44;;;16.53;100.00
46922;BME280;44039;48.336;10.454;2022-08-03T03:01:57;95987.34;;;16.24;100.00
46922;BME280;44039;48.336;10.454;2022-08-03T03:04:47;95987.75;;;15.47;100.00
46922;BME280;44039;48.336;10.454;2022-08-03T03:07:56;95989.56;;;15.89;100.00
46922;BME280;44039;48.336;10.454;2022-08-03T03:10:44;95984.03;;;16.32;100.00
46922;BME280;44039;48.336;10.454;2022-08-03T03:13:32;95981.53;;;16.21;100.00
46922;BME280;44039;48.336;10.454;2022-08-03T03:16:20;95982.25;;;15.71;100.00
46922;BME280;44039;48.336;10.454;2022-08-03T03:19:10;95981.34;;;15.82;100.00
46922;BME280;44039;48.336;10.454;2022-08-03T03:22:03;95985.53;;;15.64;100.00
46922;BME280;44039;48.336;10.454;2022-08-03T03:24:53;95978.97;;;15.58;100.00
46922;BME280;44039;48.336;10.454;2022-08-03T03:27:41;95988.06;;;15.65;100.00
46922;BME280;44039;48.336;10.454;2022-08-03T03:30:36;95987.34;;;15.42;100.00
46922;BME280;44039;48.336;10.454;2022-08-03T03:33:24;95981.97;;;15.95;100.00
46922;BME280;44039;48.336;10.454;2022-08-03T03:36:14;95992.75;;;16.23;100.00
46922;BME280;44039;48.336;10.454;2022-08-03T03:39:01;95989.13;;;16.64;100.00
46922;BME280;44039;48.336;10.454;2022-08-03T03:42:02;95980.69;;;16.70;100.00
46922;BME280;44039;48.336;10.454;2022-08-03T03:44:50;95984.19;;;16.40;100.00
46922;BME280;44039;48.336;10.454;2022-08-03T03:47:37;95987.78;;;16.29;100.00
46922;BME280;44039;48.336;10.454;2022-08-03T03:50:25;95986.59;;;16.53;100.00
46922;BME280;44039;48.336;10.454;2022-08-03T03:53:13;95994.94;;;16.18;100.00
46922;BME280;44039;48.336;10.454;2022-08-03T03:56:01;95986.66;;;16.22;100.00
46922;BME280;44039;48.336;10.454;2022-08-03T03:58:49;95988.25;;;16.54;100.00
46922;BME280;44039;48.336;10.454;2022-08-03T04:01:37;95987.09;;;16.27;100.00
46922;BME280;44039;48.336;10.454;2022-08-03T04:04:24;95996.22;;;15.93;100.00
46922;BME280;44039;48.336;10.454;2022-08-03T04:07:38;95996.69;;;15.98;100.00
46922;BME280;44039;48.336;10.454;2022-08-03T04:10:55;95989.00;;;16.25;100.00
46922;BME280;44039;48.336;10.454;2022-08-03T04:13:58;95997.88;;;15.94;100.00
46922;BME280;44039;48.336;10.454;2022-08-03T04:16:54;95993.06;;;16.29;100.00
46922;BME280;44039;48.336;10.454;2022-08-03T04:19:49;96002.59;;;16.21;100.00
46922;BME280;44039;48.336;10.454;2022-08-03T04:22:38;95999.47;;;16.36;100.00
46922;BME280;44039;48.336;10.454;2022-08-03T04:25:29;96006.75;;;16.23;100.00
46922;BME280;44039;48.336;10.454;2022-08-03T04:28:18;96006.72;;;15.83;100.00
46922;BME280;44039;48.336;10.454;2022-08-03T04:31:21;96014.00;;;16.00;100.00
46922;BME280;44039;48.336;10.454;2022-08-03T04:34:08;96015.63;;;15.92;100.00
46922;BME280;44039;48.336;10.454;2022-08-03T04:36:58;96012.13;;;16.12;100.00
46922;BME280;44039;48.336;10.454;2022-08-03T04:39:47;96012.97;;;16.53;100.00
46922;BME280;44039;48.336;10.454;2022-08-03T04:42:36;96024.31;;;16.44;100.00
46922;BME280;44039;48.336;10.454;2022-08-03T04:45:25;96021.25;;;16.48;100.00
46922;BME280;44039;48.336;10.454;2022-08-03T04:48:13;96025.25;;;16.83;100.00
46922;BME280;44039;48.336;10.454;2022-08-03T04:51:01;96021.84;;;17.11;100.00
46922;BME280;44039;48.336;10.454;2022-08-03T04:53:50;96032.38;;;17.21;100.00
46922;BME280;44039;48.336;10.454;2022-08-03T04:56:39;96031.53;;;17.01;100.00
46922;BME280;44039;48.336;10.454;2022-08-03T04:59:27;96031.28;;;17.04;100.00
46922;BME280;44039;48.336;10.454;2022-08-03T05:02:14;96029.59;;;17.32;100.00
46922;BME280;44039;48.336;10.454;2022-08-03T05:05:02;96023.38;;;17.72;100.00
46922;BME280;44039;48.336;10.454;2022-08-03T05:07:49;96021.66;;;17.61;100.00
46922;BME280;44039;48.336;10.454;2022-08-03T05:10:36;96025.84;;;17.73;100.00
46922;BME280;44039;48.336;10.454;2022-08-03T05:13:23;96029.31;;;17.64;100.00
46922;BME280;44039;48.336;10.454;2022-08-03T05:16:11;96019.78;;;18.00;100.00
46922;BME280;44039;48.336;10.454;2022-08-03T05:18:59;96017.94;;;18.48;100.00
46922;BME280;44039;48.336;10.454;2022-08-03T05:21:46;96011.34;;;18.89;96.43
46922;BME280;44039;48.336;10.454;2022-08-03T05:24:38;96017.88;;;19.48;91.84
46922;BME280;44039;48.336;10.454;2022-08-03T05:27:25;96009.47;;;20.48;85.81
46922;BME280;44039;48.336;10.454;2022-08-03T05:30:12;96000.03;;;21.21;79.70
46922;BME280;44039;48.336;10.454;2022-08-03T05:33:19;96000.59;;;21.49;81.37
46922;BME280;44039;48.336;10.454;2022-08-03T05:36:06;95989.78;;;21.58;74.97
46922;BME280;44039;48.336;10.454;2022-08-03T05:38:53;95996.91;;;21.66;75.55
46922;BME280;44039;48.336;10.454;2022-08-03T05:41:45;95978.59;;;23.67;67.59
46922;BME280;44039;48.336;10.454;2022-08-03T05:44:32;95984.34;;;23.10;66.78
46922;BME280;44039;48.336;10.454;2022-08-03T05:47:19;95984.06;;;22.66;69.85
46922;BME280;44039;48.336;10.454;2022-08-03T05:50:06;95997.22;;;22.59;71.17
46922;BME280;44039;48.336;10.454;2022-08-03T05:52:56;95996.72;;;21.92;73.29
46922;BME280;44039;48.336;10.454;2022-08-03T05:55:43;95999.22;;;21.93;72.73
46922;BME280;44039;48.336;10.454;2022-08-03T05:58:30;95997.84;;;22.22;71.68
46922;BME280;44039;48.336;10.454;2022-08-03T06:01:20;95994.84;;;22.33;70.60
46922;BME280;44039;48.336;10.454;2022-08-03T06:04:07;96005.91;;;21.65;76.32
46922;BME280;44039;48.336;10.454;2022-08-03T06:06:54;96002.56;;;21.79;78.96
46922;BME280;44039;48.336;10.454;2022-08-03T06:09:41;96009.72;;;21.71;81.55
46922;BME280;44039;48.336;10.454;2022-08-03T06:12:48;95985.31;;;23.17;72.49
46922;BME280;44039;48.336;10.454;2022-08-03T06:15:36;96004.94;;;22.77;75.89
46922;BME280;44039;48.336;10.454;2022-08-03T06:18:23;96014.34;;;21.60;80.47
46922;BME280;44039;48.336;10.454;2022-08-03T06:21:10;95997.34;;;22.27;76.75
46922;BME280;44039;48.336;10.454;2022-08-03T06:24:01;96002.50;;;23.07;73.79
46922;BME280;44039;48.336;10.454;2022-08-03T06:26:51;96000.47;;;24.00;68.46
46922;BME280;44039;48.336;10.454;2022-08-03T06:29:38;95977.47;;;25.88;57.67
46922;BME280;44039;48.336;10.454;2022-08-03T06:32:25;95985.16;;;26.67;55.42
46922;BME280;44039;48.336;10.454;2022-08-03T06:35:13;95985.94;;;25.28;60.12
46922;BME280;44039;48.336;10.454;2022-08-03T06:38:00;95983.03;;;26.21;56.32
46922;BME280;44039;48.336;10.454;2022-08-03T06:40:47;95980.19;;;26.23;56.47
46922;BME280;44039;48.336;10.454;2022-08-03T06:43:36;96005.97;;;23.61;67.50
46922;BME280;44039;48.336;10.454;2022-08-03T06:46:43;96001.66;;;24.12;68.17
46922;BME280;44039;48.336;10.454;2022-08-03T06:49:30;96012.00;;;23.78;69.28
46922;BME280;44039;48.336;10.454;2022-08-03T06:52:17;95980.38;;;26.56;57.73
46922;BME280;44039;48.336;10.454;2022-08-03T06:55:24;95987.56;;;26.21;58.64
46922;BME280;44039;48.336;10.454;2022-08-03T06:58:11;96003.91;;;24.53;64.00
46922;BME280;44039;48.336;10.454;2022-08-03T07:00:58;95988.41;;;26.56;57.99
46922;BME280;44039;48.336;10.454;2022-08-03T07:03:45;95985.44;;;27.40;55.18
46922;BME280;44039;48.336;10.454;2022-08-03T07:06:38;95987.53;;;26.90;56.97
46922;BME280;44039;48.336;10.454;2022-08-03T07:09:25;95988.06;;;27.07;56.25
46922;BME280;44039;48.336;10.454;2022-08-03T07:12:12;95980.72;;;27.62;53.35
46922;BME280;44039;48.336;10.454;2022-08-03T07:15:00;95985.88;;;26.89;56.81
46922;BME280;44039;48.336;10.454;2022-08-03T07:17:49;95987.06;;;27.34;58.60
46922;BME280;44039;48.336;10.454;2022-08-03T07:20:36;95984.81;;;26.83;59.07
46922;BME280;44039;48.336;10.454;2022-08-03T07:23:23;95985.19;;;27.15;55.80
46922;BME280;44039;48.336;10.454;2022-08-03T07:26:11;95993.25;;;25.62;61.56
46922;BME280;44039;48.336;10.454;2022-08-03T07:28:59;95995.69;;;26.34;61.49
46922;BME280;44039;48.336;10.454;2022-08-03T07:31:47;95975.59;;;27.67;51.40
46922;BME280;44039;48.336;10.454;2022-08-03T07:34:34;95976.00;;;27.97;55.26
46922;BME280;44039;48.336;10.454;2022-08-03T07:37:21;95960.47;;;29.73;48.15
46922;BME280;44039;48.336;10.454;2022-08-03T07:40:08;95964.78;;;29.43;48.25
46922;BME280;44039;48.336;10.454;2022-08-03T07:42:55;95947.59;;;30.25;45.33
46922;BME280;44039;48.336;10.454;2022-08-03T07:45:43;95931.66;;;30.42;35.16
46922;BME280;44039;48.336;10.454;2022-08-03T07:48:31;95932.19;;;30.51;34.41
46922;BME280;44039;48.336;10.454;2022-08-03T07:51:18;95942.28;;;29.69;37.82
46922;BME280;44039;48.336;10.454;2022-08-03T07:54:05;95928.25;;;30.53;34.96
46922;BME280;44039;48.336;10.454;2022-08-03T07:56:52;95937.78;;;30.12;36.14
46922;BME280;44039;48.336;10.454;2022-08-03T07:59:39;95944.34;;;29.35;38.62
46922;BME280;44039;48.336;10.454;2022-08-03T08:02:46;95940.25;;;28.94;37.98
46922;BME280;44039;48.336;10.454;2022-08-03T08:05:33;95937.41;;;29.84;36.34
46922;BME280;44039;48.336;10.454;2022-08-03T08:08:20;95939.06;;;30.10;38.16
46922;BME280;44039;48.336;10.454;2022-08-03T08:11:07;95936.41;;;29.78;37.22
46922;BME280;44039;48.336;10.454;2022-08-03T08:13:54;95938.34;;;30.39;36.73
46922;BME280;44039;48.336;10.454;2022-08-03T08:16:41;95936.13;;;29.86;36.41
46922;BME280;44039;48.336;10.454;2022-08-03T08:19:28;95934.66;;;30.34;35.79
46922;BME280;44039;48.336;10.454;2022-08-03T08:22:18;95928.75;;;30.00;34.38
46922;BME280;44039;48.336;10.454;2022-08-03T08:25:15;95924.72;;;31.73;35.05
46922;BME280;44039;48.336;10.454;2022-08-03T08:28:05;95928.53;;;30.82;35.38
46922;BME280;44039;48.336;10.454;2022-08-03T08:31:12;95938.09;;;30.23;36.12
46922;BME280;44039;48.336;10.454;2022-08-03T08:33:59;95936.38;;;30.28;35.97
46922;BME280;44039;48.336;10.454;2022-08-03T08:36:51;95924.69;;;30.89;34.90
46922;BME280;44039;48.336;10.454;2022-08-03T08:39:38;95923.19;;;30.93;34.63
46922;BME280;44039;48.336;10.454;2022-08-03T08:42:25;95918.69;;;31.77;33.21
46922;BME280;44039;48.336;10.454;2022-08-03T08:45:12;95919.25;;;33.30;30.92
46922;BME280;44039;48.336;10.454;2022-08-03T08:48:02;95921.38;;;33.28;33.13
46922;BME280;44039;48.336;10.454;2022-08-03T08:50:55;95933.41;;;31.63;33.32
46922;BME280;44039;48.336;10.454;2022-08-03T08:53:44;95935.94;;;31.16;34.43
46922;BME280;44039;48.336;10.454;2022-08-03T08:56:34;95928.19;;;31.80;33.15
46922;BME280;44039;48.336;10.454;2022-08-03T08:59:23;95931.56;;;31.34;33.11
46922;BME280;44039;48.336;10.454;2022-08-03T09:02:10;95931.22;;;32.54;33.05
46922;BME280;44039;48.336;10.454;2022-08-03T09:04:58;95928.53;;;31.42;32.67
46922;BME280;44039;48.336;10.454;2022-08-03T09:07:52;95936.16;;;30.48;33.43
46922;BME280;44039;48.336;10.454;2022-08-03T09:10:39;95926.97;;;31.22;32.80
46922;BME280;44039;48.336;10.454;2022-08-03T09:13:26;95934.00;;;31.23;33.34
46922;BME280;44039;48.336;10.454;2022-08-03T09:16:18;95936.41;;;30.47;34.42
46922;BME280;44039;48.336;10.454;2022-08-03T09:19:12;95928.06;;;32.97;29.71
46922;BME280;44039;48.336;10.454;2022-08-03T09:22:13;95938.59;;;31.76;32.19
46922;BME280;44039;48.336;10.454;2022-08-03T09:25:05;95936.44;;;31.55;32.56
46922;BME280;44039;48.336;10.454;2022-08-03T09:28:16;95938.31;;;30.94;33.39
46922;BME280;44039;48.336;10.454;2022-08-03T09:31:37;95943.78;;;31.78;32.65
46922;BME280;44039;48.336;10.454;2022-08-03T09:34:29;95935.38;;;32.45;32.70
46922;BME280;44039;48.336;10.454;2022-08-03T09:37:18;95927.25;;;32.97;31.44
46922;BME280;44039;48.336;10.454;2022-08-03T09:40:44;95921.34;;;33.57;27.92
46922;BME280;44039;48.336;10.454;2022-08-03T09:43:45;95910.03;;;33.60;26.92
46922;BME280;44039;48.336;10.454;2022-08-03T09:46:49;95917.25;;;33.71;27.08
46922;BME280;44039;48.336;10.454;2022-08-03T09:49:38;95913.47;;;34.61;28.61
46922;BME280;44039;48.336;10.454;2022-08-03T09:55:58;95918.75;;;34.73;30.00
46922;BME280;44039;48.336;10.454;2022-08-03T09:59:06;95914.13;;;33.45;26.51
46922;BME280;44039;48.336;10.454;2022-08-03T10:01:54;95914.47;;;34.16;28.59
46922;BME280;44039;48.336;10.454;2022-08-03T10:04:48;95904.66;;;36.11;24.90
46922;BME280;44039;48.336;10.454;2022-08-03T10:07:43;95899.72;;;34.90;25.06
46922;BME280;44039;48.336;10.454;2022-08-03T10:10:41;95899.38;;;35.35;25.39
46922;BME280;44039;48.336;10.454;2022-08-03T10:13:28;95900.88;;;35.80;25.03
46922;BME280;44039;48.336;10.454;2022-08-03T10:16:15;95896.22;;;35.16;26.83
46922;BME280;44039;48.336;10.454;2022-08-03T10:19:10;95904.38;;;33.16;27.86
46922;BME280;44039;48.336;10.454;2022-08-03T10:22:02;95890.81;;;36.55;23.90
46922;BME280;44039;48.336;10.454;2022-08-03T10:27:50;95881.44;;;35.29;23.83
46922;BME280;44039;48.336;10.454;2022-08-03T10:30:40;95895.66;;;35.73;25.94
46922;BME280;44039;48.336;10.454;2022-08-03T10:33:33;95887.63;;;35.24;25.37
46922;BME280;44039;48.336;10.454;2022-08-03T10:36:39;95878.91;;;34.95;25.18
46922;BME280;44039;48.336;10.454;2022-08-03T10:39:28;95887.72;;;33.53;27.15
46922;BME280;44039;48.336;10.454;2022-08-03T10:42:16;95876.81;;;33.98;26.12
46922;BME280;44039;48.336;10.454;2022-08-03T10:45:06;95878.63;;;33.13;26.50
46922;BME280;44039;48.336;10.454;2022-08-03T10:47:55;95876.25;;;33.45;24.60
46922;BME280;44039;48.336;10.454;2022-08-03T10:50:44;95874.56;;;34.12;26.62
46922;BME280;44039;48.336;10.454;2022-08-03T10:53:39;95876.34;;;33.22;27.47
46922;BME280;44039;48.336;10.454;2022-08-03T10:56:40;95865.81;;;34.43;26.43
46922;BME280;44039;48.336;10.454;2022-08-03T10:59:59;95864.34;;;34.36;25.03
46922;BME280;44039;48.336;10.454;2022-08-03T11:03:12;95856.13;;;33.92;25.45
46922;BME280;44039;48.336;10.454;2022-08-03T11:06:25;95848.41;;;36.06;21.84
46922;BME280;44039;48.336;10.454;2022-08-03T11:09:23;95848.78;;;34.09;22.65
46922;BME280;44039;48.336;10.454;2022-08-03T11:12:30;95852.72;;;35.06;22.47
46922;BME280;44039;48.336;10.454;2022-08-03T11:15:31;95853.00;;;35.36;23.52
46922;BME280;44039;48.336;10.454;2022-08-03T11:18:19;95842.31;;;37.09;20.63
46922;BME280;44039;48.336;10.454;2022-08-03T11:21:12;95850.34;;;36.68;21.79
46922;BME280;44039;48.336;10.454;2022-08-03T11:24:00;95850.19;;;37.11;22.82
46922;BME280;44039;48.336;10.454;2022-08-03T11:30:05;95852.78;;;36.17;26.45
46922;BME280;44039;48.336;10.454;2022-08-03T11:32:56;95833.94;;;37.36;21.37
46922;BME280;44039;48.336;10.454;2022-08-03T11:36:00;95834.28;;;35.67;22.08
46922;BME280;44039;48.336;10.454;2022-08-03T11:39:20;95843.91;;;34.72;23.40
46922;BME280;44039;48.336;10.454;2022-08-03T11:45:13;95838.34;;;35.37;23.92
46922;BME280;44039;48.336;10.454;2022-08-03T11:48:12;95842.25;;;34.27;24.28
46922;BME280;44039;48.336;10.454;2022-08-03T11:51:02;95832.75;;;36.34;22.72
46922;BME280;44039;48.336;10.454;2022-08-03T11:54:02;95832.81;;;37.47;21.96
46922;BME280;44039;48.336;10.454;2022-08-03T11:56:49;95824.59;;;35.44;22.99
46922;BME280;44039;48.336;10.454;2022-08-03T11:59:37;95827.28;;;36.81;22.21
46922;BME280;44039;48.336;10.454;2022-08-03T12:02:24;95827.91;;;35.51;21.66
46922;BME280;44039;48.336;10.454;2022-08-03T12:05:11;95833.69;;;34.57;24.48
46922;BME280;44039;48.336;10.454;2022-08-03T12:07:59;95821.56;;;36.83;22.88
46922;BME280;44039;48.336;10.454;2022-08-03T12:10:52;95816.00;;;38.56;20.75
46922;BME280;44039;48.336;10.454;2022-08-03T12:13:43;95817.94;;;36.62;20.83
46922;BME280;44039;48.336;10.454;2022-08-03T12:16:51;95824.09;;;37.30;23.41
46922;BME280;44039;48.336;10.454;2022-08-03T12:19:42;95809.94;;;37.64;22.06
46922;BME280;44039;48.336;10.454;2022-08-03T12:22:37;95804.22;;;37.70;19.42
46922;BME280;44039;48.336;10.454;2022-08-03T12:25:25;95797.94;;;38.75;18.00
46922;BME280;44039;48.336;10.454;2022-08-03T12:28:25;95805.66;;;38.53;19.67
46922;BME280;44039;48.336;10.454;2022-08-03T12:31:23;95815.38;;;36.35;24.17
46922;BME280;44039;48.336;10.454;2022-08-03T12:34:11;95802.03;;;37.57;19.86
46922;BME280;44039;48.336;10.454;2022-08-03T12:37:03;95790.50;;;38.11;18.33
46922;BME280;44039;48.336;10.454;2022-08-03T12:40:08;95811.25;;;35.43;23.34
46922;BME280;44039;48.336;10.454;2022-08-03T12:43:09;95802.22;;;34.78;23.81
46922;BME280;44039;48.336;10.454;2022-08-03T12:46:11;95803.13;;;37.25;23.96
46922;BME280;44039;48.336;10.454;2022-08-03T12:54:37;95790.72;;;36.46;22.57
46922;BME280;44039;48.336;10.454;2022-08-03T12:57:24;95790.94;;;35.45;24.17
46922;BME280;44039;48.336;10.454;2022-08-03T13:00:17;95785.25;;;36.41;20.95
46922;BME280;44039;48.336;10.454;2022-08-03T13:03:14;95780.91;;;35.19;21.22
46922;BME280;44039;48.336;10.454;2022-08-03T13:06:24;95796.22;;;36.77;25.31
46922;BME280;44039;48.336;10.454;2022-08-03T13:09:11;95791.78;;;36.45;22.26
46922;BME280;44039;48.336;10.454;2022-08-03T13:12:06;95786.53;;;37.22;22.65
46922;BME280;44039;48.336;10.454;2022-08-03T13:14:55;95794.28;;;36.62;23.93
46922;BME280;44039;48.336;10.454;2022-08-03T13:17:43;95771.31;;;37.36;20.36
46922;BME280;44039;48.336;10.454;2022-08-03T13:20:30;95783.16;;;36.59;22.37
46922;BME280;44039;48.336;10.454;2022-08-03T13:23:18;95782.19;;;35.80;22.80
46922;BME280;44039;48.336;10.454;2022-08-03T13:26:09;95784.28;;;34.50;25.24
46922;BME280;44039;48.336;10.454;2022-08-03T13:28:56;95790.75;;;33.33;26.66
46922;BME280;44039;48.336;10.454;2022-08-03T13:31:43;95779.75;;;35.42;22.94
46922;BME280;44039;48.336;10.454;2022-08-03T13:34:37;95778.59;;;36.90;23.47
46922;BME280;44039;48.336;10.454;2022-08-03T13:37:24;95765.75;;;38.02;20.96
46922;BME280;44039;48.336;10.454;2022-08-03T13:40:12;95772.38;;;37.20;22.65
46922;BME280;44039;48.336;10.454;2022-08-03T13:43:00;95767.50;;;35.76;22.93
46922;BME280;44039;48.336;10.454;2022-08-03T13:45:47;95765.47;;;36.66;21.05
46922;BME280;44039;48.336;10.454;2022-08-03T13:48:40;95770.50;;;34.78;26.27
46922;BME280;44039;48.336;10.454;2022-08-03T13:51:27;95765.22;;;36.68;24.47
46922;BME280;44039;48.336;10.454;2022-08-03T13:54:14;95758.34;;;34.86;23.65
46922;BME280;44039;48.336;10.454;2022-08-03T13:57:01;95762.03;;;35.66;22.68
46922;BME280;44039;48.336;10.454;2022-08-03T14:00:09;95761.75;;;36.15;24.98
46922;BME280;44039;48.336;10.454;2022-08-03T14:02:58;95759.19;;;35.19;24.18
46922;BME280;44039;48.336;10.454;2022-08-03T14:05:59;95754.63;;;35.24;23.80
46922;BME280;44039;48.336;10.454;2022-08-03T14:08:47;95756.72;;;36.49;21.66
46922;BME280;44039;48.336;10.454;2022-08-03T14:11:34;95755.66;;;34.59;24.71
46922;BME280;44039;48.336;10.454;2022-08-03T14:14:41;95761.59;;;34.56;26.72
46922;BME280;44039;48.336;10.454;2022-08-03T14:17:28;95770.94;;;34.70;27.70
46922;BME280;44039;48.336;10.454;2022-08-03T14:20:35;95764.28;;;34.34;24.65
46922;BME280;44039;48.336;10.454;2022-08-03T14:23:37;95754.69;;;36.19;21.74
46922;BME280;44039;48.336;10.454;2022-08-03T14:26:24;95751.31;;;36.54;21.64
46922;BME280;44039;48.336;10.454;2022-08-03T14:29:11;95747.91;;;35.69;23.24
46922;BME280;44039;48.336;10.454;2022-08-03T14:31:59;95744.53;;;35.94;22.04
46922;BME280;44039;48.336;10.454;2022-08-03T14:34:58;95745.81;;;36.39;22.96
46922;BME280;44039;48.336;10.454;2022-08-03T14:37:46;95761.91;;;34.16;26.62
46922;BME280;44039;48.336;10.454;2022-08-03T14:40:33;95749.94;;;34.88;25.42
46922;BME280;44039;48.336;10.454;2022-08-03T14:43:20;95742.25;;;35.76;23.54
46922;BME280;44039;48.336;10.454;2022-08-03T14:46:07;95740.22;;;36.86;21.59
46922;BME280;44039;48.336;10.454;2022-08-03T14:48:54;95750.00;;;33.95;25.65
46922;BME280;44039;48.336;10.454;2022-08-03T14:52:01;95740.09;;;32.95;26.50
46922;BME280;44039;48.336;10.454;2022-08-03T14:54:48;95736.88;;;35.11;23.37
46922;BME280;44039;48.336;10.454;2022-08-03T14:57:35;95733.09;;;33.88;23.40
46922;BME280;44039;48.336;10.454;2022-08-03T15:00:22;95734.97;;;34.80;23.81
46922;BME280;44039;48.336;10.454;2022-08-03T15:03:09;95734.69;;;36.40;22.25
46922;BME280;44039;48.336;10.454;2022-08-03T15:06:02;95732.34;;;36.85;23.11
46922;BME280;44039;48.336;10.454;2022-08-03T15:08:49;95737.53;;;34.16;26.07
46922;BME280;44039;48.336;10.454;2022-08-03T15:11:56;95738.63;;;34.15;27.50
46922;BME280;44039;48.336;10.454;2022-08-03T15:14:43;95734.53;;;33.52;26.63
46922;BME280;44039;48.336;10.454;2022-08-03T15:17:30;95720.41;;;33.33;26.25
46922;BME280;44039;48.336;10.454;2022-08-03T15:20:18;95719.56;;;33.49;27.63
46922;BME280;44039;48.336;10.454;2022-08-03T15:23:22;95717.56;;;33.23;27.61
46922;BME280;44039;48.336;10.454;2022-08-03T15:26:09;95708.75;;;33.32;24.01